Alderson, WV

12:32 AM EDT on August 02, 2014 (GMT -0400)
kc8ysl kc8zec Organ Cave (KWVCALDW2) Elev 2310 ft | 37.71 °N, 80.42 °W | Change Station

Current weather conditions updated 1 second ago

Overcast
Overcast
62.7 °F
Feels Like 62.7 °F
N
0.0
Wind Variable Wind from East
Gusts 0.0 mph

Today is forecast to be Warmer than yesterday. Thunderstorms developing in the afternoon.

Today
High -- | Low -- °F
--% Chance of Precip.
Yesterday
High -- | Low -- °F
Precip. -- in
6:27 AM 8:30 PM
Waxing Crescent, 32% visible
Pressure 30.20 in
Visibility 10.0 miles
Clouds Scattered Clouds 3800 ft
Overcast 5000 ft
Dew Point 57 °F
Humidity 82%
Rainfall 0.00 in
Snow Depth Not available.
UV 0 out of 12
Pollen 4.40 out of 12
Air Quality Not available.
Flu Activity Not available.
METAR KLWB 020415Z AUTO 02003KT 10SM SCT038 OVC050 17/14 A3020 RMK AO2 T01700136

More Conditions Fewer Conditions

Pressure 30.20 in
Visibility 10.0 miles
Clouds Scattered Clouds 3800 ft
Overcast 5000 ft
Dew Point 57 °F
Humidity 82%
Rainfall 0.00 in
Snow Depth Not available.
UV 0 out of 12
Pollen 4.40 out of 12
Air Quality Not available.
Flu Activity Not available.
METAR KLWB 020415Z AUTO 02003KT 10SM SCT038 OVC050 17/14 A3020 RMK AO2 T01700136

More Conditions Fewer Conditions

10-Day Weather Forecast

Almanac

Astronomy

Aug. 02, 2014 Rise Set
Actual Time 6:27 AM EDT 8:30 PM EDT
Civil Twilight 5:58 AM EDT 8:59 PM EDT
Nautical Twilight 5:22 AM EDT 9:34 PM EDT
Astronomical Twilight 4:44 AM EDT 10:12 PM EDT
Moon 12:39 PM EDT 11:56 PM EDT
Length of Visible Light 15h 01m
Length of Day
14h 03m
Tomorrow will be 1m 51s shorter.
Waxing Crescent, 32% of the Moon is Illuminated
Today
Waxing Crescent
Aug 3
First Quarter
Aug 10
Full
Aug 17
Last Quarter
Aug 25
New

Yesterday's Extremes

State Highs State Lows

Community

WunderPhotos

Upload Photos

1,739,820 photos uploaded!

Nearby

Snow Depth

Station Depth Elevation
No new snow has been reported.

Earthquake Activity

City Distance Mag. Time & Date
No recent earthquake activity has been reported nearby.
Minimum magnitude displayed is 2.5.

Coastal Water Temperatures

Place Temperature
No Stations Reporting

Nearby Weather Stations

Station Location Temp. Dew Point Humidity Wind Precip. Elev Updated Type
kc8ysl kc8zec Organ Cave, Organ Cave, WV 62.7 °F 57 °F 82% East  at  0.0 mph 0.00 in / hr 2310 ft 12:32 AM EDT Rapid Fire
Organ Cave Weather, Organ Cave, WV 61.1 °F 59 °F 94% ESE  at  0.0 mph - / hr 2309 ft 12:25 AM EDT Normal
Bluestone Dam - Meador, Hinton, WV 64.0 °F 60 °F 85% NW  at  0.0 mph 0.00 in / hr 1394 ft 12:29 AM EDT Normal
ADAIR RIDGE ROAD, Ballard, WV 63.0 °F 56 °F 79% ESE  at  0.0 mph 0.00 in / hr 2053 ft 12:32 AM EDT Rapid Fire
Cool Ridge, Raleigh Co., WV 58.3 °F 56 °F 92% ESE  at  4.0 mph 0.00 in / hr 2965 ft 12:31 AM EDT Rapid Fire

Show More Stations Show Fewer Stations